Time;durP1;ratioP1;P1;durP2;ratioP2;P2;SDS_P1;SDS_P2;PMS_P1;PMS_P2;Temp;Humidity;BMP_temperature;BMP_pressure;BME280_temperature;BME280_humidity;BME280_pressure;Samples;Min_cycle;Max_cycle;Signal;HPM_P1;HPM_P2
2022/05/11 00:01:36;;;;;;;6.97;5.33;;;19.10;99.90;;;;;;5067240;28;20742;-65
2022/05/11 00:04:05;;;;;;;6.27;5.27;;;19.10;99.90;;;;;;5073447;28;20178;-66
2022/05/11 00:06:31;;;;;;;5.93;5.47;;;19.10;99.90;;;;;;5057270;28;20183;-66
2022/05/11 00:08:57;;;;;;;7.23;5.60;;;19.10;99.90;;;;;;5053257;28;20186;-66
2022/05/11 00:11:26;;;;;;;6.00;5.53;;;19.00;99.90;;;;;;5064961;28;20682;-66
2022/05/11 00:13:52;;;;;;;5.17;4.80;;;19.00;99.90;;;;;;5062989;28;20210;-66
2022/05/11 00:16:18;;;;;;;6.00;5.10;;;18.90;99.90;;;;;;5052781;28;20181;-65
2022/05/11 00:18:43;;;;;;;6.07;5.67;;;18.80;99.90;;;;;;5060962;28;20691;-67
2022/05/11 00:21:10;;;;;;;5.93;5.43;;;18.80;99.90;;;;;;5071530;28;20289;-66
2022/05/11 00:23:36;;;;;;;5.73;5.10;;;18.80;99.90;;;;;;5066245;28;20277;-66
2022/05/11 00:26:02;;;;;;;6.30;5.80;;;18.80;99.90;;;;;;5051398;28;20179;-67
2022/05/11 00:28:28;;;;;;;9.43;5.10;;;18.70;99.90;;;;;;5057173;28;20594;-66
2022/05/11 00:30:53;;;;;;;7.83;5.07;;;18.70;99.90;;;;;;5072865;28;20226;-66
2022/05/11 00:33:19;;;;;;;6.10;5.50;;;18.70;99.90;;;;;;5069764;28;20654;-67
2022/05/11 00:35:48;;;;;;;5.23;4.73;;;18.70;99.90;;;;;;5052453;28;20185;-67
2022/05/11 00:38:15;;;;;;;8.17;5.20;;;18.70;99.90;;;;;;5052372;28;20182;-67
2022/05/11 00:40:43;;;;;;;5.10;4.70;;;18.70;99.90;;;;;;5072402;28;20281;-67
2022/05/11 00:43:10;;;;;;;5.63;5.23;;;18.70;99.90;;;;;;5072292;28;20520;-66
2022/05/11 00:45:42;;;;;;;7.40;4.97;;;18.60;99.90;;;;;;5052038;28;20183;-66
2022/05/11 00:50:56;;;;;;;5.97;5.33;;;18.60;99.90;;;;;;5032814;28;20582;-67
2022/05/11 00:53:23;;;;;;;5.50;5.10;;;18.60;99.90;;;;;;5036235;28;20187;-67
2022/05/11 00:55:56;;;;;;;5.30;4.90;;;18.50;99.90;;;;;;5050838;28;20281;-66
2022/05/11 00:58:37;;;;;;;5.83;5.37;;;18.40;99.90;;;;;;5054013;28;20222;-66
2022/05/11 01:01:03;;;;;;;5.87;5.47;;;18.40;99.90;;;;;;5072382;28;20197;-66
2022/05/11 01:03:40;;;;;;;6.53;5.10;;;18.40;99.90;;;;;;5085169;28;20182;-66
2022/05/11 01:06:07;;;;;;;7.33;5.30;;;18.40;99.90;;;;;;5052155;28;20245;-67
2022/05/11 01:08:33;;;;;;;6.17;5.50;;;18.40;99.90;;;;;;5053221;28;20546;-66
2022/05/11 01:11:04;;;;;;;6.07;5.53;;;18.40;99.90;;;;;;5068629;28;20201;-66
2022/05/11 01:13:32;;;;;;;6.20;5.70;;;18.40;99.90;;;;;;5070518;28;20256;-66
2022/05/11 01:15:59;;;;;;;5.77;5.37;;;18.40;99.90;;;;;;5071247;28;20166;-66
2022/05/11 01:18:26;;;;;;;6.03;5.27;;;18.40;99.90;;;;;;5031920;28;20175;-65
2022/05/11 01:20:52;;;;;;;5.93;5.47;;;18.40;99.90;;;;;;5032065;28;20573;-66
2022/05/11 01:23:29;;;;;;;6.20;5.60;;;18.30;99.90;;;;;;5069103;28;20224;-67
2022/05/11 01:25:55;;;;;;;5.57;5.00;;;18.30;99.90;;;;;;5071473;28;20253;-65
2022/05/11 01:28:21;;;;;;;5.90;5.40;;;18.20;99.90;;;;;;5053208;28;20320;-65
2022/05/11 01:30:50;;;;;;;5.57;5.17;;;18.20;99.90;;;;;;5050460;28;20195;-66
2022/05/11 01:33:22;;;;;;;11.60;5.60;;;18.20;99.90;;;;;;5068305;28;20170;-66
2022/05/11 01:36:13;;;;;;;5.90;5.40;;;18.10;99.90;;;;;;5086841;28;20651;-65
2022/05/11 01:38:41;;;;;;;5.47;5.07;;;18.00;99.90;;;;;;5051791;28;20551;-65
2022/05/11 01:41:09;;;;;;;5.83;5.10;;;17.90;99.90;;;;;;5067426;28;20244;-66
2022/05/11 01:43:38;;;;;;;6.23;5.73;;;17.90;99.90;;;;;;5069704;28;20276;-66
2022/05/11 01:46:05;;;;;;;6.50;5.90;;;17.80;99.90;;;;;;5054330;28;20383;-66
2022/05/11 01:48:31;;;;;;;7.67;6.20;;;17.70;99.90;;;;;;5052626;28;20655;-66
2022/05/11 01:50:58;;;;;;;6.40;5.87;;;17.60;99.90;;;;;;5051319;28;20202;-67
2022/05/11 01:53:25;;;;;;;9.20;5.80;;;17.50;99.90;;;;;;5056933;28;20522;-65
2022/05/11 01:55:50;;;;;;;6.20;5.70;;;17.40;99.90;;;;;;5071120;28;20624;-66
2022/05/11 01:58:17;;;;;;;6.17;5.73;;;17.40;99.90;;;;;;5066906;28;20241;-66
2022/05/11 02:00:44;;;;;;;6.30;5.80;;;17.30;99.90;;;;;;5051209;28;20622;-65
2022/05/11 02:03:11;;;;;;;6.50;6.00;;;17.30;99.90;;;;;;5053566;28;20181;-66
2022/05/11 02:08:21;;;;;;;6.07;5.57;;;17.30;99.90;;;;;;5060128;28;20190;-66
2022/05/11 02:10:47;;;;;;;6.07;5.67;;;17.30;99.90;;;;;;5051125;28;20656;-65
2022/05/11 02:13:13;;;;;;;6.53;6.00;;;17.30;99.90;;;;;;5059460;28;20178;-66
2022/05/11 02:15:39;;;;;;;6.23;5.83;;;17.30;99.90;;;;;;5071093;28;20258;-66
2022/05/11 02:18:06;;;;;;;6.30;5.73;;;17.20;99.90;;;;;;5061943;28;20265;-66
2022/05/11 02:20:32;;;;;;;6.50;5.87;;;17.20;99.90;;;;;;5049796;28;20195;-67
2022/05/11 02:22:57;;;;;;;6.67;5.93;;;17.20;99.90;;;;;;5059726;28;20178;-66
2022/05/11 02:25:24;;;;;;;6.60;5.70;;;17.10;99.90;;;;;;5074864;28;20236;-65
2022/05/11 02:27:51;;;;;;;5.93;5.37;;;17.10;99.90;;;;;;5086278;28;20664;-66
2022/05/11 02:30:29;;;;;;;6.30;5.80;;;17.00;99.90;;;;;;5053782;28;20198;-66
2022/05/11 02:32:56;;;;;;;7.00;6.40;;;17.00;99.90;;;;;;5056251;28;20695;-66
2022/05/11 02:35:22;;;;;;;8.33;6.17;;;16.90;99.90;;;;;;5054449;28;20290;-66
2022/05/11 02:38:03;;;;;;;7.47;6.03;;;16.90;99.90;;;;;;5057311;28;20178;-66
2022/05/11 02:40:35;;;;;;;9.40;5.63;;;16.90;99.90;;;;;;5073273;28;20201;-65
2022/05/11 02:43:01;;;;;;;10.47;6.00;;;16.90;99.90;;;;;;5069208;28;20190;-66
2022/05/11 02:45:29;;;;;;;6.10;5.60;;;16.90;99.90;;;;;;5054264;28;20698;-65
2022/05/11 02:47:56;;;;;;;6.47;5.97;;;16.90;99.90;;;;;;5057189;28;20187;-66
2022/05/11 02:50:26;;;;;;;6.83;5.90;;;16.90;99.90;;;;;;5074633;28;20198;-66
2022/05/11 02:52:52;;;;;;;5.90;5.40;;;16.90;99.90;;;;;;5065578;28;20221;-66
2022/05/11 02:55:18;;;;;;;5.93;5.43;;;16.90;99.90;;;;;;5054091;28;20264;-66
2022/05/11 02:57:43;;;;;;;5.97;5.43;;;16.90;99.90;;;;;;5061960;28;20178;-66
2022/05/11 03:00:12;;;;;;;5.97;5.47;;;16.90;99.90;;;;;;5074180;28;20188;-66
2022/05/11 03:02:38;;;;;;;6.10;5.50;;;16.90;99.90;;;;;;5057586;28;20183;-66
2022/05/11 03:05:05;;;;;;;6.33;5.50;;;16.80;99.90;;;;;;5054175;28;20231;-66
2022/05/11 03:07:30;;;;;;;8.77;6.03;;;16.80;99.90;;;;;;5069275;28;20174;-67
2022/05/11 03:09:56;;;;;;;6.10;5.63;;;16.70;99.90;;;;;;5074559;28;20204;-66
2022/05/11 03:12:22;;;;;;;6.53;6.03;;;16.70;99.90;;;;;;5060742;28;20212;-66
2022/05/11 03:14:53;;;;;;;11.17;6.60;;;16.70;99.90;;;;;;5059643;28;20209;-65
2022/05/11 03:17:19;;;;;;;6.40;5.87;;;16.60;99.90;;;;;;5074203;28;20201;-67
2022/05/11 03:19:45;;;;;;;6.83;6.10;;;16.50;99.90;;;;;;5068144;28;20574;-66
2022/05/11 03:22:11;;;;;;;5.80;5.37;;;16.50;99.90;;;;;;5054291;28;20248;-66
2022/05/11 03:24:38;;;;;;;6.77;6.20;;;16.40;99.90;;;;;;5057743;28;20178;-66
2022/05/11 03:27:04;;;;;;;9.13;5.90;;;16.40;99.90;;;;;;5074073;28;20178;-66
2022/05/11 03:29:30;;;;;;;9.63;6.00;;;16.30;99.90;;;;;;5065722;28;20546;-66
2022/05/11 03:34:41;;;;;;;9.77;6.20;;;16.30;99.90;;;;;;5061815;28;20225;-66
2022/05/11 03:37:10;;;;;;;6.30;5.83;;;16.20;99.90;;;;;;5073906;28;20257;-66
2022/05/11 03:39:36;;;;;;;6.30;5.70;;;16.30;99.90;;;;;;5066045;28;20187;-66
2022/05/11 03:42:04;;;;;;;6.93;6.43;;;16.30;99.90;;;;;;5054271;28;20214;-66
2022/05/11 03:44:29;;;;;;;6.30;5.80;;;16.30;99.90;;;;;;5059409;28;20632;-66
2022/05/11 03:46:55;;;;;;;6.40;5.90;;;16.20;99.90;;;;;;5073647;28;20178;-67
2022/05/11 03:49:21;;;;;;;6.40;5.80;;;16.30;99.90;;;;;;5068848;28;20651;-66
2022/05/11 03:51:48;;;;;;;7.00;6.47;;;16.30;99.90;;;;;;5053479;28;20273;-67
2022/05/11 03:54:14;;;;;;;6.33;5.83;;;16.20;99.90;;;;;;5054592;28;20241;-66
2022/05/11 03:56:39;;;;;;;7.37;6.00;;;16.10;99.90;;;;;;5053163;28;20629;-66
2022/05/11 03:59:05;;;;;;;6.27;5.73;;;16.10;99.90;;;;;;5053284;28;20182;-66
2022/05/11 04:01:30;;;;;;;6.50;5.97;;;16.10;99.90;;;;;;5073283;28;20761;-66
2022/05/11 04:03:56;;;;;;;6.57;6.10;;;16.10;99.90;;;;;;5073429;28;20171;-65
2022/05/11 04:06:22;;;;;;;7.27;6.60;;;16.00;99.90;;;;;;5051902;28;20596;-67
2022/05/11 04:08:47;;;;;;;7.47;6.87;;;16.00;99.90;;;;;;5053266;28;20233;-67
2022/05/11 04:11:13;;;;;;;8.07;6.83;;;16.00;99.90;;;;;;5070735;28;20739;-67
2022/05/11 04:13:42;;;;;;;12.07;6.97;;;16.00;99.90;;;;;;5073043;28;20228;-67
2022/05/11 04:16:08;;;;;;;10.77;6.37;;;15.90;99.90;;;;;;5054111;28;20580;-67
2022/05/11 04:18:37;;;;;;;7.20;6.50;;;15.90;99.90;;;;;;5053111;28;20178;-67
2022/05/11 04:21:03;;;;;;;9.70;6.80;;;15.80;99.90;;;;;;5068180;28;20539;-67
2022/05/11 04:23:29;;;;;;;8.17;7.30;;;15.90;99.90;;;;;;5061453;28;20241;-67
2022/05/11 04:25:55;;;;;;;8.00;7.37;;;15.90;99.90;;;;;;5052694;28;20213;-66
2022/05/11 04:28:23;;;;;;;7.70;6.90;;;15.90;99.90;;;;;;5062397;28;20174;-67
2022/05/11 04:30:49;;;;;;;7.43;6.27;;;16.00;99.90;;;;;;5072826;28;20194;-67
2022/05/11 04:33:14;;;;;;;8.93;7.60;;;16.10;99.90;;;;;;5064643;28;20554;-67
2022/05/11 04:35:40;;;;;;;7.83;7.13;;;16.00;99.90;;;;;;5052454;28;20579;-67
2022/05/11 04:38:07;;;;;;;7.57;6.80;;;16.00;99.90;;;;;;5058760;28;20182;-66
2022/05/11 04:40:34;;;;;;;8.77;6.83;;;16.10;99.90;;;;;;5072617;28;20290;-67
2022/05/11 04:43:07;;;;;;;9.40;7.50;;;16.30;99.90;;;;;;5067618;28;20181;-66
2022/05/11 04:45:33;;;;;;;10.47;6.80;;;16.30;99.90;;;;;;5051458;28;20694;-67
2022/05/11 04:47:58;;;;;;;7.63;6.97;;;16.40;99.90;;;;;;5053871;28;20266;-68
2022/05/11 04:50:24;;;;;;;11.23;8.00;;;16.30;99.90;;;;;;5052458;28;20659;-67
2022/05/11 04:52:52;;;;;;;7.73;7.13;;;16.30;99.90;;;;;;5066899;28;20243;-66
2022/05/11 04:55:17;;;;;;;7.57;6.87;;;16.30;99.90;;;;;;5072093;28;20648;-66
2022/05/11 04:57:43;;;;;;;8.23;7.43;;;16.40;99.90;;;;;;5058955;28;20189;-68
2022/05/11 05:00:13;;;;;;;7.53;6.93;;;16.40;99.90;;;;;;5052493;28;20595;-68
2022/05/11 05:02:39;;;;;;;8.70;6.60;;;16.40;99.90;;;;;;5063992;28;20200;-67
2022/05/11 05:05:06;;;;;;;10.37;8.57;;;16.30;99.90;;;;;;5071920;28;20166;-67
2022/05/11 05:07:35;;;;;;;8.40;7.70;;;16.30;99.90;;;;;;5061277;28;20178;-67
2022/05/11 05:10:05;;;;;;;8.27;7.47;;;16.30;99.90;;;;;;5050554;28;20181;-67
2022/05/11 05:12:30;;;;;;;8.47;7.67;;;16.30;99.90;;;;;;5057430;28;20185;-66
2022/05/11 05:14:56;;;;;;;9.73;7.63;;;16.40;99.90;;;;;;5071690;28;20667;-67
2022/05/11 05:17:22;;;;;;;9.20;6.90;;;16.60;99.90;;;;;;5072171;28;20166;-66
2022/05/11 05:19:49;;;;;;;9.53;8.57;;;16.70;99.90;;;;;;5070261;28;20178;-67
2022/05/11 05:22:15;;;;;;;7.97;7.27;;;16.80;99.90;;;;;;5071213;28;20293;-67
2022/05/11 05:24:41;;;;;;;7.67;6.93;;;16.90;99.90;;;;;;5071363;28;20171;-68
2022/05/11 05:27:07;;;;;;;8.57;7.60;;;17.10;99.90;;;;;;5070159;28;20217;-67
2022/05/11 05:32:17;;;;;;;8.43;7.60;;;17.30;99.90;;;;;;5066333;28;20698;-67
2022/05/11 05:34:44;;;;;;;8.47;6.77;;;17.40;99.90;;;;;;5051153;28;20238;-66
2022/05/11 05:37:11;;;;;;;7.83;6.87;;;17.60;99.90;;;;;;5052725;28;20170;-67
2022/05/11 05:39:36;;;;;;;8.50;7.17;;;17.90;99.90;;;;;;5051436;28;20226;-68
2022/05/11 05:42:03;;;;;;;10.33;6.20;;;18.30;99.90;;;;;;5056272;28;20214;-67
2022/05/11 05:44:31;;;;;;;8.50;7.30;;;18.70;99.90;;;;;;5071201;28;20170;-66
2022/05/11 05:47:02;;;;;;;8.33;7.50;;;19.00;99.90;;;;;;5065723;28;20213;-68
2022/05/11 05:49:29;;;;;;;7.60;7.00;;;19.30;99.90;;;;;;5051245;28;20163;-68
2022/05/11 05:51:54;;;;;;;8.63;7.93;;;19.50;99.90;;;;;;5054771;28;20201;-67
2022/05/11 05:54:20;;;;;;;10.37;8.17;;;19.60;99.90;;;;;;5070207;28;20202;-67
2022/05/11 05:56:45;;;;;;;7.73;7.13;;;19.80;99.90;;;;;;5069310;28;20173;-67
2022/05/11 05:59:14;;;;;;;8.23;7.53;;;20.00;99.90;;;;;;5051619;28;20584;-67
2022/05/11 06:01:39;;;;;;;7.45;6.85;;;20.40;99.90;;;;;;5050924;28;20209;-67
2022/05/11 06:04:05;;;;;;;7.97;7.18;;;20.80;99.90;;;;;;5054732;28;20174;-68
2022/05/11 06:06:31;;;;;;;9.10;8.05;;;21.10;99.90;;;;;;5062179;28;20185;-68
2022/05/11 06:08:57;;;;;;;8.05;7.47;;;21.50;99.90;;;;;;5056025;28;20185;-67
2022/05/11 06:11:23;;;;;;;8.00;6.68;;;21.80;99.90;;;;;;5067932;28;20201;-68
2022/05/11 06:13:48;;;;;;;8.65;7.95;;;22.10;99.90;;;;;;5070959;28;20208;-68
2022/05/11 06:16:16;;;;;;;8.15;6.70;;;22.40;99.90;;;;;;5069384;28;20273;-68
2022/05/11 06:18:44;;;;;;;7.43;6.70;;;22.70;99.90;;;;;;5070860;28;20170;-68
2022/05/11 06:21:12;;;;;;;14.25;6.53;;;22.90;99.90;;;;;;5056624;28;20229;-67
2022/05/11 06:23:38;;;;;;;10.05;6.28;;;23.20;99.90;;;;;;5049372;28;20526;-68
2022/05/11 06:26:04;;;;;;;7.70;6.45;;;23.50;99.90;;;;;;5051983;28;20183;-68
2022/05/11 06:28:30;;;;;;;7.20;6.03;;;23.70;99.90;;;;;;5050864;28;20170;-68
2022/05/11 06:30:56;;;;;;;8.07;6.40;;;23.90;99.90;;;;;;5060803;28;20206;-69
2022/05/11 06:33:22;;;;;;;6.55;5.85;;;23.90;99.90;;;;;;5070812;28;20181;-68
2022/05/11 06:35:47;;;;;;;6.15;5.55;;;24.10;99.90;;;;;;5061037;28;20183;-68
2022/05/11 06:38:13;;;;;;;9.55;5.82;;;24.20;99.90;;;;;;5056676;28;20178;-68
2022/05/11 06:40:39;;;;;;;6.13;5.53;;;24.30;99.90;;;;;;5070722;28;20213;-68
2022/05/11 06:43:05;;;;;;;5.90;5.40;;;24.40;99.90;;;;;;5067781;28;20166;-68
2022/05/11 06:45:31;;;;;;;6.00;5.50;;;24.60;99.90;;;;;;5070013;28;20181;-67
2022/05/11 06:47:58;;;;;;;6.40;4.65;;;24.70;99.90;;;;;;5066647;28;20182;-68
2022/05/11 06:50:26;;;;;;;5.65;5.10;;;25.00;99.90;;;;;;5050717;28;20198;-67
2022/05/11 06:52:52;;;;;;;7.43;5.05;;;25.20;99.90;;;;;;5068484;28;20644;-67
2022/05/11 07:00:48;;;;;;;6.22;5.63;;;25.70;99.90;;;;;;5050881;28;20244;-67
2022/05/11 07:03:14;;;;;;;7.82;5.25;;;25.70;99.90;;;;;;5070188;28;20179;-68
2022/05/11 07:05:41;;;;;;;5.80;5.25;;;25.90;99.90;;;;;;5068562;28;20551;-68
2022/05/11 07:08:08;;;;;;;5.40;5.00;;;26.00;99.90;;;;;;5071789;28;20224;-68
2022/05/11 07:10:38;;;;;;;6.60;5.28;;;26.10;99.90;;;;;;5072244;28;20229;-67
2022/05/11 07:13:04;;;;;;;6.28;4.82;;;26.10;99.90;;;;;;5052616;28;20190;-68
2022/05/11 07:15:30;;;;;;;5.63;5.10;;;26.30;99.90;;;;;;5053945;28;20619;-67
2022/05/11 07:18:03;;;;;;;11.35;6.93;;;26.60;99.90;;;;;;5074105;28;20219;-68
2022/05/11 07:20:36;;;;;;;14.05;8.23;;;27.00;99.90;;;;;;5072188;28;20281;-67
2022/05/11 07:23:04;;;;;;;9.30;5.60;;;27.10;99.90;;;;;;5073646;28;20181;-68
2022/05/11 07:25:30;;;;;;;6.25;5.18;;;27.40;99.90;;;;;;5073592;28;20178;-67
2022/05/11 07:27:57;;;;;;;5.97;5.22;;;27.70;99.90;;;;;;5055354;28;20189;-68
2022/05/11 07:30:30;;;;;;;7.07;4.80;;;27.70;99.90;;;;;;5073159;28;20186;-67
2022/05/11 07:32:56;;;;;;;7.65;4.30;;;27.30;99.90;;;;;;5071831;28;20178;-67
2022/05/11 07:35:22;;;;;;;5.90;4.30;;;26.90;99.90;;;;;;5073203;28;20202;-67
2022/05/11 07:37:48;;;;;;;7.72;5.45;;;26.70;99.90;;;;;;5056275;28;20171;-67
2022/05/11 07:40:16;;;;;;;6.65;5.65;;;26.70;99.90;;;;;;5053475;28;20186;-67
2022/05/11 07:42:43;;;;;;;5.63;5.10;;;26.60;99.90;;;;;;5054734;28;20186;-67
2022/05/11 07:45:10;;;;;;;6.45;4.93;;;26.60;99.90;;;;;;5053527;28;20543;-68
2022/05/11 07:47:36;;;;;;;8.32;4.90;;;26.90;99.90;;;;;;5067970;28;20182;-67
2022/05/11 07:50:02;;;;;;;4.63;3.97;;;27.20;99.90;;;;;;5073521;28;20352;-68
2022/05/11 07:52:28;;;;;;;5.00;3.92;;;27.40;99.90;;;;;;5059979;28;20179;-67
2022/05/11 07:54:53;;;;;;;4.30;3.75;;;27.60;99.90;;;;;;5053021;28;20205;-66
2022/05/11 08:00:06;;;;;;;5.28;3.25;;;26.80;99.90;;;;;;5073379;28;20285;-67
2022/05/11 08:02:37;;;;;;;4.07;3.78;;;26.80;99.90;;;;;;5060407;28;20655;-66
2022/05/11 08:05:06;;;;;;;3.75;3.50;;;26.80;99.90;;;;;;5051779;28;20182;-67
2022/05/11 08:07:47;;;;;;;4.38;3.83;;;26.50;99.90;;;;;;5064761;28;20217;-66
2022/05/11 08:10:22;;;;;;;3.83;3.63;;;26.30;99.90;;;;;;5063718;28;20183;-66
2022/05/11 08:12:49;;;;;;;4.07;3.78;;;26.20;99.90;;;;;;5053155;28;20568;-67
2022/05/11 08:15:16;;;;;;;3.88;3.58;;;26.30;99.90;;;;;;5061514;28;20347;-67
2022/05/11 08:17:44;;;;;;;4.70;4.28;;;26.80;99.90;;;;;;5072906;28;20788;-67
2022/05/11 08:20:16;;;;;;;6.78;4.18;;;27.00;99.90;;;;;;5063784;28;20261;-66
2022/05/11 08:22:43;;;;;;;4.28;3.63;;;27.00;99.90;;;;;;5052668;28;20195;-66
2022/05/11 08:25:10;;;;;;;4.13;3.80;;;27.30;99.90;;;;;;5059262;28;20193;-66
2022/05/11 08:27:36;;;;;;;4.32;3.40;;;27.50;99.90;;;;;;5072530;28;20657;-67
2022/05/11 08:35:32;;;;;;;3.55;3.25;;;28.40;99.90;;;;;;5053174;28;20206;-67
2022/05/11 08:37:58;;;;;;;3.38;3.17;;;28.70;99.90;;;;;;5052841;28;20640;-67
2022/05/11 08:40:37;;;;;;;6.07;3.83;;;28.70;99.90;;;;;;5059594;28;20534;-67
2022/05/11 08:43:14;;;;;;;3.70;3.40;;;28.70;99.90;;;;;;5072571;28;20174;-67
2022/05/11 08:46:20;;;;;;;4.35;4.05;;;28.50;99.90;;;;;;5070269;28;20185;-66
2022/05/11 08:48:57;;;;;;;8.23;4.35;;;28.40;99.90;;;;;;5072495;28;20178;-67
2022/05/11 08:52:01;;;;;;;5.88;3.60;;;28.40;99.90;;;;;;5052794;28;20206;-66
2022/05/11 08:54:50;;;;;;;6.25;4.20;;;28.20;99.90;;;;;;5009260;28;20204;-66
2022/05/11 08:57:20;;;;;;;4.75;4.32;;;27.60;99.90;;;;;;5031194;28;20219;-67
2022/05/11 08:59:46;;;;;;;3.97;3.67;;;27.70;99.90;;;;;;5040012;28;20181;-67
2022/05/11 09:02:43;;;;;;;4.32;4.03;;;28.00;99.90;;;;;;5072146;28;20592;-66
2022/05/11 09:05:11;;;;;;;5.47;3.90;;;27.80;99.90;;;;;;5032004;28;20183;-65
2022/05/11 09:07:39;;;;;;;4.28;3.97;;;27.90;99.90;;;;;;5030547;28;20186;-65
2022/05/11 09:10:07;;;;;;;4.03;3.72;;;28.30;99.90;;;;;;5071048;28;20188;-66
2022/05/11 09:12:33;;;;;;;4.93;4.03;;;28.60;99.90;;;;;;5071802;28;20714;-66
2022/05/11 09:15:03;;;;;;;4.05;3.67;;;29.20;99.90;;;;;;5058655;28;20214;-65
2022/05/11 09:17:40;;;;;;;3.95;3.70;;;29.50;99.90;;;;;;5071537;28;20166;-66
2022/05/11 09:20:12;;;;;;;5.88;3.88;;;29.60;99.90;;;;;;5066672;28;20170;-66
2022/05/11 09:22:41;;;;;;;4.97;4.07;;;29.60;99.90;;;;;;5051654;28;20517;-66
2022/05/11 09:25:20;;;;;;;3.90;3.60;;;29.50;99.90;;;;;;5059130;28;20652;-65
2022/05/11 09:27:48;;;;;;;3.85;3.63;;;29.30;99.90;;;;;;5071715;28;20173;-65
2022/05/11 09:30:22;;;;;;;3.88;3.60;;;28.90;99.90;;;;;;5063034;28;20183;-66
2022/05/11 09:32:48;;;;;;;4.97;3.72;;;29.10;99.90;;;;;;5051753;28;20644;-66
2022/05/11 09:35:32;;;;;;;6.53;3.85;;;29.60;99.90;;;;;;5058700;28;20229;-66
2022/05/11 09:38:03;;;;;;;4.03;3.72;;;30.00;99.90;;;;;;5071612;28;20168;-65
2022/05/11 09:40:30;;;;;;;4.40;3.80;;;29.90;99.90;;;;;;5061397;28;20237;-66
2022/05/11 09:43:02;;;;;;;6.85;3.90;;;29.60;99.90;;;;;;5068119;28;20178;-66
2022/05/11 09:45:47;;;;;;;4.13;3.80;;;29.40;99.90;;;;;;5070934;28;20178;-65
2022/05/11 09:48:22;;;;;;;4.80;4.28;;;29.40;99.90;;;;;;5071113;28;20664;-66
2022/05/11 09:50:54;;;;;;;8.55;4.40;;;29.80;99.90;;;;;;5069943;28;20697;-65
2022/05/11 09:53:36;;;;;;;4.43;4.03;;;30.00;99.90;;;;;;5059046;28;20174;-66
2022/05/11 09:56:36;;;;;;;4.28;3.92;;;30.10;99.90;;;;;;5050935;28;20182;-66
2022/05/11 09:59:23;;;;;;;5.28;3.70;;;29.90;99.90;;;;;;5026507;28;20191;-66
2022/05/11 10:01:53;;;;;;;4.95;4.30;;;29.70;99.90;;;;;;5051019;28;20187;-65
2022/05/11 10:04:28;;;;;;;4.07;3.78;;;29.50;99.90;;;;;;5068380;28;20173;-65
2022/05/11 10:06:55;;;;;;;4.55;4.22;;;29.10;99.90;;;;;;5071205;28;20276;-65
2022/05/11 10:09:31;;;;;;;4.35;3.95;;;29.10;99.90;;;;;;5053524;28;20314;-65
2022/05/11 10:11:58;;;;;;;6.55;4.70;;;29.20;99.90;;;;;;5050926;28;20229;-65
2022/05/11 10:23:27;;;;;;;4.93;4.00;;;29.80;99.90;;;;;;5066230;28;20210;-66
2022/05/11 10:26:07;;;;;;;3.63;3.42;;;29.90;99.90;;;;;;5035721;28;20192;-67
2022/05/11 10:29:01;;;;;;;6.35;4.38;;;29.50;99.90;;;;;;5051001;28;20257;-67
2022/05/11 10:31:32;;;;;;;5.38;3.85;;;29.40;99.90;;;;;;5060804;28;20225;-67
2022/05/11 10:34:12;;;;;;;5.53;3.95;;;29.70;99.90;;;;;;5070955;28;20205;-67
2022/05/11 10:37:04;;;;;;;3.45;3.15;;;30.20;99.90;;;;;;5059156;28;20175;-67
2022/05/11 10:39:59;;;;;;;4.50;3.65;;;30.60;99.90;;;;;;5050678;28;20269;-67
2022/05/11 10:42:49;;;;;;;4.28;3.97;;;30.70;99.90;;;;;;5067617;28;20186;-67
2022/05/11 10:45:21;;;;;;;3.55;3.35;;;30.60;99.90;;;;;;5074589;28;20174;-67
2022/05/11 10:47:49;;;;;;;3.95;3.65;;;30.50;99.90;;;;;;5054965;28;20182;-67
2022/05/11 10:50:39;;;;;;;3.63;3.33;;;30.80;99.90;;;;;;5067553;28;20182;-68
2022/05/11 10:53:16;;;;;;;5.50;3.05;;;31.00;99.90;;;;;;5074550;28;20174;-67
2022/05/11 10:56:23;;;;;;;4.57;3.70;;;30.80;99.90;;;;;;5033975;28;20739;-67
2022/05/11 10:59:13;;;;;;;4.10;3.70;;;30.90;99.90;;;;;;5045479;28;20178;-67
2022/05/11 11:02:13;;;;;;;6.45;3.50;;;30.70;99.90;;;;;;5074304;28;20538;-67
2022/05/11 11:05:02;;;;;;;4.32;4.00;;;30.80;99.90;;;;;;5062447;28;20273;-67
2022/05/11 11:07:57;;;;;;;5.15;3.63;;;30.90;99.90;;;;;;5054336;28;20165;-67
2022/05/11 11:11:01;;;;;;;4.13;3.80;;;30.50;99.90;;;;;;5071073;28;20202;-67
2022/05/11 11:13:49;;;;;;;4.10;3.80;;;30.30;99.90;;;;;;5073533;28;20177;-67
2022/05/11 11:16:15;;;;;;;4.20;3.25;;;30.30;99.90;;;;;;5052761;28;20648;-67
2022/05/11 11:18:49;;;;;;;5.80;3.67;;;30.50;99.90;;;;;;5053781;28;20187;-67
2022/05/11 11:21:16;;;;;;;3.53;3.22;;;30.50;99.90;;;;;;5054441;28;20239;-67
2022/05/11 11:23:47;;;;;;;3.85;3.40;;;30.60;99.90;;;;;;5054634;28;20182;-67
2022/05/11 11:26:47;;;;;;;4.10;3.80;;;30.60;99.90;;;;;;5073903;28;20174;-67
2022/05/11 11:29:13;;;;;;;4.25;3.85;;;30.70;99.90;;;;;;5044058;28;20179;-67
2022/05/11 11:32:00;;;;;;;3.88;3.60;;;30.40;99.90;;;;;;5052273;28;20198;-67
2022/05/11 11:34:32;;;;;;;4.00;3.70;;;30.40;99.90;;;;;;5059033;28;20204;-67
2022/05/11 11:37:19;;;;;;;3.90;3.60;;;30.10;99.90;;;;;;5073844;28;20260;-67
2022/05/11 11:39:57;;;;;;;4.85;3.85;;;29.90;99.90;;;;;;5065903;28;20206;-67
2022/05/11 11:42:34;;;;;;;4.45;4.05;;;30.10;99.90;;;;;;5055203;28;20209;-67
2022/05/11 11:45:01;;;;;;;4.40;4.05;;;30.20;99.90;;;;;;5053196;28;20695;-67
2022/05/11 11:47:27;;;;;;;3.72;3.42;;;30.30;99.90;;;;;;5059565;28;20189;-67
2022/05/11 11:49:55;;;;;;;4.00;3.70;;;30.50;99.90;;;;;;5064726;28;20652;-67
2022/05/11 11:52:43;;;;;;;8.25;3.80;;;30.60;99.90;;;;;;5053241;28;20209;-67
2022/05/11 11:55:22;;;;;;;4.20;3.90;;;30.70;99.90;;;;;;5062745;28;20604;-67
2022/05/11 11:57:54;;;;;;;4.50;4.07;;;30.10;99.90;;;;;;5073498;28;20205;-67
2022/05/11 12:00:19;;;;;;;3.75;3.40;;;30.30;99.90;;;;;;5073602;28;20198;-67
2022/05/11 12:02:45;;;;;;;4.55;3.80;;;30.80;99.90;;;;;;5073402;28;20172;-67
2022/05/11 12:05:37;;;;;;;3.92;3.63;;;31.20;99.90;;;;;;5073342;28;20174;-67
2022/05/11 12:16:53;;;;;;;4.03;3.72;;;30.40;99.90;;;;;;5072902;28;20220;-67
2022/05/11 12:19:20;;;;;;;4.15;3.75;;;30.40;99.90;;;;;;5073410;28;20174;-67
2022/05/11 12:22:12;;;;;;;4.00;3.70;;;30.60;99.90;;;;;;5072742;28;20561;-67
2022/05/11 12:24:47;;;;;;;4.13;3.92;;;30.40;99.90;;;;;;5072843;28;20189;-67
2022/05/11 12:27:27;;;;;;;7.22;3.72;;;30.40;99.90;;;;;;5073156;28;20239;-67
2022/05/11 12:29:57;;;;;;;5.25;3.63;;;30.60;99.90;;;;;;5073019;28;20166;-67
2022/05/11 12:32:27;;;;;;;6.03;4.25;;;30.60;99.90;;;;;;5073023;28;20166;-67
2022/05/11 12:34:53;;;;;;;4.22;3.92;;;30.30;99.90;;;;;;5071229;28;20292;-67
2022/05/11 12:37:24;;;;;;;7.38;4.05;;;30.30;99.90;;;;;;5072812;28;20175;-67
2022/05/11 12:39:59;;;;;;;4.25;3.85;;;30.30;99.90;;;;;;5072813;28;20300;-67
2022/05/11 12:42:36;;;;;;;4.50;4.20;;;30.50;99.90;;;;;;5072562;28;20217;-67
2022/05/11 12:45:03;;;;;;;4.82;4.53;;;30.50;99.90;;;;;;5072465;28;20204;-67
2022/05/11 12:47:29;;;;;;;3.80;3.50;;;30.50;99.90;;;;;;5072220;28;20202;-67
2022/05/11 12:49:55;;;;;;;3.75;3.45;;;31.00;99.90;;;;;;5072382;28;20259;-67
2022/05/11 12:52:25;;;;;;;4.00;3.80;;;31.50;99.90;;;;;;5072395;28;20683;-67
2022/05/11 12:55:00;;;;;;;3.95;3.75;;;31.50;99.90;;;;;;5072125;28;20243;-68
2022/05/11 12:57:35;;;;;;;3.90;3.60;;;31.60;99.90;;;;;;5072181;28;20173;-67
2022/05/11 13:00:10;;;;;;;4.20;3.90;;;31.30;99.90;;;;;;5072050;28;20196;-67
2022/05/11 13:02:38;;;;;;;4.25;3.60;;;31.00;99.90;;;;;;5072122;28;20180;-67
2022/05/11 13:05:08;;;;;;;3.95;3.65;;;30.90;99.90;;;;;;5071763;28;20171;-67
2022/05/11 13:07:42;;;;;;;12.15;4.20;;;30.40;99.90;;;;;;5071796;28;20228;-67
2022/05/11 13:10:12;;;;;;;4.10;3.78;;;30.00;99.90;;;;;;5071921;28;20182;-67
2022/05/11 13:12:39;;;;;;;4.03;3.70;;;30.10;99.90;;;;;;5072186;28;20208;-67
2022/05/11 13:15:06;;;;;;;4.28;3.97;;;30.50;99.90;;;;;;5071646;28;20667;-68
2022/05/11 13:17:36;;;;;;;3.90;3.60;;;30.90;99.90;;;;;;5070629;28;20693;-67
2022/05/11 13:20:19;;;;;;;7.22;4.20;;;31.00;99.90;;;;;;5071881;28;20166;-67
2022/05/11 13:23:00;;;;;;;3.65;3.45;;;30.80;99.90;;;;;;5072003;28;20178;-67
2022/05/11 13:25:44;;;;;;;4.07;3.80;;;31.00;99.90;;;;;;5071290;28;20170;-67
2022/05/11 13:28:29;;;;;;;4.32;3.92;;;31.40;99.90;;;;;;5071227;28;20162;-67
2022/05/11 13:31:22;;;;;;;4.18;3.75;;;31.90;99.90;;;;;;5071811;28;20722;-67
2022/05/11 13:33:47;;;;;;;3.95;3.70;;;31.80;99.90;;;;;;5071692;28;20428;-67
2022/05/11 13:36:20;;;;;;;4.13;3.75;;;31.50;99.90;;;;;;5071398;28;20174;-67
2022/05/11 13:38:53;;;;;;;3.53;2.85;;;31.30;99.30;;;;;;5071737;28;20189;-67
2022/05/11 13:41:24;;;;;;;6.60;3.58;;;31.00;97.20;;;;;;5071932;28;20372;-67
2022/05/11 13:43:55;;;;;;;4.32;3.92;;;31.00;99.60;;;;;;5071636;28;20193;-67
2022/05/11 13:46:35;;;;;;;4.10;3.70;;;30.90;98.60;;;;;;5071480;28;20162;-67